sensor_id;sensor_type;location;lat;lon;timestamp;pressure;altitude;pressure_sealevel;temperature;humidity
30949;BME280;17637;51.984;21.208;2023-07-20T00:00:21;99527.50;;;18.07;53.05
30949;BME280;17637;51.984;21.208;2023-07-20T00:03:10;99533.69;;;18.14;53.60
30949;BME280;17637;51.984;21.208;2023-07-20T00:05:48;99520.78;;;18.04;53.38
30949;BME280;17637;51.984;21.208;2023-07-20T00:08:19;99497.50;;;18.01;53.26
30949;BME280;17637;51.984;21.208;2023-07-20T00:10:51;99532.41;;;18.25;53.12
30949;BME280;17637;51.984;21.208;2023-07-20T00:13:23;99530.16;;;18.22;53.55
30949;BME280;17637;51.984;21.208;2023-07-20T00:15:55;99521.88;;;17.95;54.59
30949;BME280;17637;51.984;21.208;2023-07-20T00:18:27;99485.91;;;17.73;54.63
30949;BME280;17637;51.984;21.208;2023-07-20T00:20:58;99508.13;;;17.85;54.54
30949;BME280;17637;51.984;21.208;2023-07-20T00:23:33;99503.25;;;17.82;54.77
30949;BME280;17637;51.984;21.208;2023-07-20T00:26:06;99464.59;;;17.67;55.17
30949;BME280;17637;51.984;21.208;2023-07-20T00:28:38;99473.13;;;17.69;54.87
30949;BME280;17637;51.984;21.208;2023-07-20T00:31:10;99492.47;;;17.92;54.39
30949;BME280;17637;51.984;21.208;2023-07-20T00:33:42;99502.31;;;17.98;54.62
30949;BME280;17637;51.984;21.208;2023-07-20T00:36:14;99502.66;;;17.95;54.95
30949;BME280;17637;51.984;21.208;2023-07-20T00:38:45;99504.81;;;17.91;55.29
30949;BME280;17637;51.984;21.208;2023-07-20T00:41:17;99484.84;;;17.82;54.77
30949;BME280;17637;51.984;21.208;2023-07-20T00:43:50;99493.09;;;17.79;55.90
30949;BME280;17637;51.984;21.208;2023-07-20T00:46:23;99496.81;;;17.84;55.30
30949;BME280;17637;51.984;21.208;2023-07-20T00:48:59;99496.06;;;17.76;55.16
30949;BME280;17637;51.984;21.208;2023-07-20T00:51:30;99492.69;;;17.67;55.22
30949;BME280;17637;51.984;21.208;2023-07-20T00:54:03;99489.19;;;17.75;55.13
30949;BME280;17637;51.984;21.208;2023-07-20T00:56:35;99486.78;;;17.65;55.01
30949;BME280;17637;51.984;21.208;2023-07-20T00:59:07;99496.25;;;17.74;55.16
30949;BME280;17637;51.984;21.208;2023-07-20T01:01:39;99501.06;;;17.70;55.67
30949;BME280;17637;51.984;21.208;2023-07-20T01:04:11;99467.44;;;17.43;55.74
30949;BME280;17637;51.984;21.208;2023-07-20T01:09:44;99491.47;;;17.54;56.54
30949;BME280;17637;51.984;21.208;2023-07-20T01:12:26;99508.41;;;17.52;56.81
30949;BME280;17637;51.984;21.208;2023-07-20T01:14:59;99491.88;;;17.20;56.71
30949;BME280;17637;51.984;21.208;2023-07-20T01:17:31;99525.91;;;17.13;58.06
30949;BME280;17637;51.984;21.208;2023-07-20T01:20:05;99506.38;;;17.16;57.56
30949;BME280;17637;51.984;21.208;2023-07-20T01:22:59;99523.03;;;17.00;58.57
30949;BME280;17637;51.984;21.208;2023-07-20T01:33:57;99506.56;;;17.06;58.40
30949;BME280;17637;51.984;21.208;2023-07-20T01:36:33;99516.56;;;16.79;59.07
30949;BME280;17637;51.984;21.208;2023-07-20T01:39:06;99523.25;;;16.82;59.08
30949;BME280;17637;51.984;21.208;2023-07-20T01:41:39;99524.88;;;16.91;59.31
30949;BME280;17637;51.984;21.208;2023-07-20T01:44:12;99528.31;;;16.92;58.59
30949;BME280;17637;51.984;21.208;2023-07-20T01:46:44;99524.91;;;16.75;59.32
30949;BME280;17637;51.984;21.208;2023-07-20T01:49:16;99519.94;;;16.88;58.88
30949;BME280;17637;51.984;21.208;2023-07-20T01:51:48;99525.00;;;16.98;58.27
30949;BME280;17637;51.984;21.208;2023-07-20T01:54:20;99505.75;;;16.74;59.32
30949;BME280;17637;51.984;21.208;2023-07-20T01:56:53;99510.50;;;16.70;59.32
30949;BME280;17637;51.984;21.208;2023-07-20T01:59:24;99520.78;;;16.80;59.38
30949;BME280;17637;51.984;21.208;2023-07-20T02:01:56;99483.06;;;16.42;60.00
30949;BME280;17637;51.984;21.208;2023-07-20T02:04:28;99501.13;;;16.36;60.35
30949;BME280;17637;51.984;21.208;2023-07-20T02:07:00;99500.00;;;16.31;59.91
30949;BME280;17637;51.984;21.208;2023-07-20T02:09:32;99523.25;;;16.34;60.36
30949;BME280;17637;51.984;21.208;2023-07-20T02:12:03;99512.63;;;16.27;61.00
30949;BME280;17637;51.984;21.208;2023-07-20T02:14:35;99521.59;;;16.33;60.79
30949;BME280;17637;51.984;21.208;2023-07-20T02:17:07;99530.31;;;16.33;60.32
30949;BME280;17637;51.984;21.208;2023-07-20T02:19:42;99515.09;;;16.20;60.83
30949;BME280;17637;51.984;21.208;2023-07-20T02:22:14;99519.50;;;16.20;61.19
30949;BME280;17637;51.984;21.208;2023-07-20T02:24:46;99515.91;;;16.21;60.99
30949;BME280;17637;51.984;21.208;2023-07-20T02:27:18;99526.03;;;16.24;61.12
30949;BME280;17637;51.984;21.208;2023-07-20T02:29:50;99510.53;;;16.06;62.17
30949;BME280;17637;51.984;21.208;2023-07-20T02:32:22;99536.69;;;16.22;60.81
30949;BME280;17637;51.984;21.208;2023-07-20T02:34:54;99544.75;;;16.29;61.51
30949;BME280;17637;51.984;21.208;2023-07-20T02:37:26;99543.41;;;16.25;61.98
30949;BME280;17637;51.984;21.208;2023-07-20T02:39:57;99516.28;;;15.93;63.27
30949;BME280;17637;51.984;21.208;2023-07-20T02:42:29;99522.97;;;16.12;62.61
30949;BME280;17637;51.984;21.208;2023-07-20T02:45:02;99502.69;;;15.98;63.28
30949;BME280;17637;51.984;21.208;2023-07-20T02:47:35;99510.31;;;16.24;62.14
30949;BME280;17637;51.984;21.208;2023-07-20T02:50:08;99513.09;;;16.31;61.81
30949;BME280;17637;51.984;21.208;2023-07-20T02:52:40;99505.56;;;16.36;61.51
30949;BME280;17637;51.984;21.208;2023-07-20T02:55:12;99497.34;;;16.39;61.23
30949;BME280;17637;51.984;21.208;2023-07-20T02:57:44;99509.13;;;16.51;61.14
30949;BME280;17637;51.984;21.208;2023-07-20T03:00:16;99481.66;;;16.31;61.57
30949;BME280;17637;51.984;21.208;2023-07-20T03:02:47;99499.78;;;16.40;61.63
30949;BME280;17637;51.984;21.208;2023-07-20T03:05:21;99524.84;;;16.43;62.16
30949;BME280;17637;51.984;21.208;2023-07-20T03:07:52;99513.59;;;16.34;61.67
30949;BME280;17637;51.984;21.208;2023-07-20T03:10:24;99527.28;;;16.53;61.68
30949;BME280;17637;51.984;21.208;2023-07-20T03:12:56;99504.09;;;16.33;61.93
30949;BME280;17637;51.984;21.208;2023-07-20T03:15:28;99511.00;;;16.18;62.12
30949;BME280;17637;51.984;21.208;2023-07-20T03:18:00;99511.91;;;16.42;61.40
30949;BME280;17637;51.984;21.208;2023-07-20T03:20:32;99523.38;;;16.40;61.74
30949;BME280;17637;51.984;21.208;2023-07-20T03:23:04;99487.84;;;16.38;61.46
30949;BME280;17637;51.984;21.208;2023-07-20T03:25:36;99517.28;;;16.56;61.21
30949;BME280;17637;51.984;21.208;2023-07-20T03:28:09;99510.88;;;16.59;60.63
30949;BME280;17637;51.984;21.208;2023-07-20T03:30:40;99519.44;;;16.53;61.22
30949;BME280;17637;51.984;21.208;2023-07-20T03:33:12;99515.78;;;16.62;61.26
30949;BME280;17637;51.984;21.208;2023-07-20T03:35:44;99530.84;;;16.68;61.62
30949;BME280;17637;51.984;21.208;2023-07-20T03:38:16;99531.97;;;16.74;61.61
30949;BME280;17637;51.984;21.208;2023-07-20T03:40:52;99542.25;;;16.84;60.91
30949;BME280;17637;51.984;21.208;2023-07-20T03:43:25;99541.09;;;16.86;60.23
30949;BME280;17637;51.984;21.208;2023-07-20T03:45:57;99545.88;;;16.91;60.13
30949;BME280;17637;51.984;21.208;2023-07-20T03:48:29;99548.19;;;16.78;60.30
30949;BME280;17637;51.984;21.208;2023-07-20T03:51:01;99571.28;;;16.91;60.61
30949;BME280;17637;51.984;21.208;2023-07-20T03:53:33;99579.97;;;16.91;62.05
30949;BME280;17637;51.984;21.208;2023-07-20T03:56:05;99565.25;;;16.73;62.91
30949;BME280;17637;51.984;21.208;2023-07-20T03:58:37;99593.00;;;16.68;62.45
30949;BME280;17637;51.984;21.208;2023-07-20T04:01:09;99601.53;;;16.53;63.08
30949;BME280;17637;51.984;21.208;2023-07-20T04:03:41;99598.94;;;16.45;64.41
30949;BME280;17637;51.984;21.208;2023-07-20T04:06:15;99620.88;;;16.61;64.19
30949;BME280;17637;51.984;21.208;2023-07-20T04:08:48;99626.00;;;16.37;64.61
30949;BME280;17637;51.984;21.208;2023-07-20T04:11:20;99636.47;;;16.37;65.72
30949;BME280;17637;51.984;21.208;2023-07-20T04:13:52;99632.38;;;16.35;65.04
30949;BME280;17637;51.984;21.208;2023-07-20T04:16:23;99649.09;;;16.34;65.88
30949;BME280;17637;51.984;21.208;2023-07-20T04:18:56;99636.00;;;16.09;65.80
30949;BME280;17637;51.984;21.208;2023-07-20T04:21:28;99649.09;;;16.09;66.70
30949;BME280;17637;51.984;21.208;2023-07-20T04:24:00;99649.06;;;16.01;67.69
30949;BME280;17637;51.984;21.208;2023-07-20T04:26:32;99650.22;;;15.90;68.93
30949;BME280;17637;51.984;21.208;2023-07-20T04:29:04;99675.47;;;16.07;69.95
30949;BME280;17637;51.984;21.208;2023-07-20T04:31:35;99669.22;;;16.08;70.03
30949;BME280;17637;51.984;21.208;2023-07-20T04:34:07;99653.44;;;15.75;70.68
30949;BME280;17637;51.984;21.208;2023-07-20T04:36:39;99670.88;;;16.01;71.76
30949;BME280;17637;51.984;21.208;2023-07-20T04:39:11;99669.03;;;15.85;71.76
30949;BME280;17637;51.984;21.208;2023-07-20T04:42:00;99666.91;;;15.89;71.66
30949;BME280;17637;51.984;21.208;2023-07-20T04:44:32;99674.88;;;15.79;70.47
30949;BME280;17637;51.984;21.208;2023-07-20T04:47:04;99684.94;;;15.84;71.73
30949;BME280;17637;51.984;21.208;2023-07-20T04:49:36;99660.63;;;15.65;74.18
30949;BME280;17637;51.984;21.208;2023-07-20T04:52:08;99670.19;;;15.83;71.91
30949;BME280;17637;51.984;21.208;2023-07-20T04:54:40;99671.94;;;15.74;73.58
30949;BME280;17637;51.984;21.208;2023-07-20T04:57:12;99670.19;;;15.83;72.60
30949;BME280;17637;51.984;21.208;2023-07-20T04:59:44;99662.63;;;15.80;73.19
30949;BME280;17637;51.984;21.208;2023-07-20T05:02:16;99694.09;;;15.88;73.50
30949;BME280;17637;51.984;21.208;2023-07-20T05:04:48;99687.41;;;15.94;74.10
30949;BME280;17637;51.984;21.208;2023-07-20T05:07:20;99651.59;;;15.51;75.75
30949;BME280;17637;51.984;21.208;2023-07-20T05:09:51;99690.50;;;15.89;74.31
30949;BME280;17637;51.984;21.208;2023-07-20T05:12:23;99694.75;;;15.98;72.88
30949;BME280;17637;51.984;21.208;2023-07-20T05:14:55;99698.03;;;15.84;74.67
30949;BME280;17637;51.984;21.208;2023-07-20T05:17:27;99694.44;;;15.93;74.03
30949;BME280;17637;51.984;21.208;2023-07-20T05:19:59;99656.53;;;15.71;74.28
30949;BME280;17637;51.984;21.208;2023-07-20T05:22:30;99703.97;;;16.11;73.07
30949;BME280;17637;51.984;21.208;2023-07-20T05:25:02;99700.69;;;16.08;73.52
30949;BME280;17637;51.984;21.208;2023-07-20T05:27:36;99693.91;;;15.81;74.75
30949;BME280;17637;51.984;21.208;2023-07-20T05:30:08;99677.75;;;15.94;74.71
30949;BME280;17637;51.984;21.208;2023-07-20T05:32:40;99699.88;;;16.08;74.44
30949;BME280;17637;51.984;21.208;2023-07-20T05:35:12;99677.06;;;15.84;74.87
30949;BME280;17637;51.984;21.208;2023-07-20T05:37:45;99681.19;;;15.95;74.63
30949;BME280;17637;51.984;21.208;2023-07-20T05:40:17;99679.38;;;15.87;73.92
30949;BME280;17637;51.984;21.208;2023-07-20T05:42:52;99699.69;;;16.10;73.98
30949;BME280;17637;51.984;21.208;2023-07-20T05:45:25;99704.31;;;16.07;74.02
30949;BME280;17637;51.984;21.208;2023-07-20T05:47:57;99685.78;;;16.09;74.16
30949;BME280;17637;51.984;21.208;2023-07-20T05:50:29;99687.44;;;16.18;73.74
30949;BME280;17637;51.984;21.208;2023-07-20T05:53:00;99681.19;;;16.03;73.49
30949;BME280;17637;51.984;21.208;2023-07-20T05:55:32;99694.75;;;15.90;73.58
30949;BME280;17637;51.984;21.208;2023-07-20T05:58:04;99687.59;;;16.17;73.14
30949;BME280;17637;51.984;21.208;2023-07-20T06:00:36;99654.97;;;15.86;75.90
30949;BME280;17637;51.984;21.208;2023-07-20T06:03:08;99706.59;;;16.19;76.56
30949;BME280;17637;51.984;21.208;2023-07-20T06:05:40;99681.03;;;16.21;74.82
30949;BME280;17637;51.984;21.208;2023-07-20T06:08:12;99659.59;;;16.26;75.52
30949;BME280;17637;51.984;21.208;2023-07-20T06:10:44;99687.28;;;16.28;75.58
30949;BME280;17637;51.984;21.208;2023-07-20T06:13:16;99683.00;;;16.52;75.28
30949;BME280;17637;51.984;21.208;2023-07-20T06:15:48;99662.19;;;16.34;74.22
30949;BME280;17637;51.984;21.208;2023-07-20T06:18:20;99652.03;;;16.39;72.67
30949;BME280;17637;51.984;21.208;2023-07-20T06:20:53;99634.34;;;16.41;73.13
30949;BME280;17637;51.984;21.208;2023-07-20T06:23:24;99645.91;;;16.71;71.47
30949;BME280;17637;51.984;21.208;2023-07-20T06:25:56;99641.34;;;16.65;71.03
30949;BME280;17637;51.984;21.208;2023-07-20T06:28:28;99632.69;;;16.56;72.59
30949;BME280;17637;51.984;21.208;2023-07-20T06:31:01;99637.06;;;16.72;72.90
30949;BME280;17637;51.984;21.208;2023-07-20T06:33:33;99626.97;;;16.36;73.19
30949;BME280;17637;51.984;21.208;2023-07-20T06:36:06;99621.72;;;16.45;74.10
30949;BME280;17637;51.984;21.208;2023-07-20T06:38:38;99633.50;;;16.65;73.31
30949;BME280;17637;51.984;21.208;2023-07-20T06:41:10;99639.00;;;16.87;73.53
30949;BME280;17637;51.984;21.208;2023-07-20T06:43:45;99616.25;;;16.71;72.98
30949;BME280;17637;51.984;21.208;2023-07-20T06:46:20;99605.56;;;16.81;73.95
30949;BME280;17637;51.984;21.208;2023-07-20T06:48:53;99624.53;;;16.99;72.82
30949;BME280;17637;51.984;21.208;2023-07-20T06:51:28;99623.25;;;16.95;72.18
30949;BME280;17637;51.984;21.208;2023-07-20T06:54:00;99605.84;;;17.02;72.91
30949;BME280;17637;51.984;21.208;2023-07-20T06:56:32;99612.50;;;17.21;73.04
30949;BME280;17637;51.984;21.208;2023-07-20T06:59:05;99610.50;;;17.24;72.80
30949;BME280;17637;51.984;21.208;2023-07-20T07:01:36;99605.16;;;17.09;72.97
30949;BME280;17637;51.984;21.208;2023-07-20T07:04:08;99604.16;;;17.18;72.64
30949;BME280;17637;51.984;21.208;2023-07-20T07:06:41;99630.41;;;17.18;72.04
30949;BME280;17637;51.984;21.208;2023-07-20T07:09:12;99621.78;;;17.64;70.03
30949;BME280;17637;51.984;21.208;2023-07-20T07:11:44;99616.53;;;17.87;70.05
30949;BME280;17637;51.984;21.208;2023-07-20T07:14:17;99627.97;;;17.71;68.73
30949;BME280;17637;51.984;21.208;2023-07-20T07:16:49;99650.66;;;17.95;68.78
30949;BME280;17637;51.984;21.208;2023-07-20T07:19:22;99638.63;;;18.01;66.63
30949;BME280;17637;51.984;21.208;2023-07-20T07:21:54;99634.47;;;18.07;66.10
30949;BME280;17637;51.984;21.208;2023-07-20T07:24:31;99640.22;;;17.55;63.79
30949;BME280;17637;51.984;21.208;2023-07-20T07:27:05;99624.28;;;17.26;66.17
30949;BME280;17637;51.984;21.208;2023-07-20T07:29:37;99639.78;;;17.44;66.92
30949;BME280;17637;51.984;21.208;2023-07-20T07:32:09;99661.59;;;17.52;66.85
30949;BME280;17637;51.984;21.208;2023-07-20T07:34:44;99670.41;;;17.83;67.24
30949;BME280;17637;51.984;21.208;2023-07-20T07:37:18;99662.00;;;17.64;66.68
30949;BME280;17637;51.984;21.208;2023-07-20T07:39:51;99660.16;;;17.73;65.72
30949;BME280;17637;51.984;21.208;2023-07-20T07:42:23;99648.06;;;17.64;65.94
30949;BME280;17637;51.984;21.208;2023-07-20T07:44:55;99656.78;;;17.25;67.24
30949;BME280;17637;51.984;21.208;2023-07-20T07:47:27;99661.84;;;17.34;67.03
30949;BME280;17637;51.984;21.208;2023-07-20T07:49:59;99659.06;;;17.28;67.12
30949;BME280;17637;51.984;21.208;2023-07-20T07:52:31;99634.56;;;17.04;67.83
30949;BME280;17637;51.984;21.208;2023-07-20T07:55:04;99676.66;;;17.19;68.41
30949;BME280;17637;51.984;21.208;2023-07-20T07:57:36;99652.78;;;16.97;69.25
30949;BME280;17637;51.984;21.208;2023-07-20T08:00:09;99691.88;;;17.32;69.96
30949;BME280;17637;51.984;21.208;2023-07-20T08:02:46;99670.50;;;16.95;69.55
30949;BME280;17637;51.984;21.208;2023-07-20T08:05:19;99696.06;;;17.01;69.69
30949;BME280;17637;51.984;21.208;2023-07-20T08:07:52;99671.13;;;16.89;70.02
30949;BME280;17637;51.984;21.208;2023-07-20T08:10:24;99695.53;;;17.14;70.83
30949;BME280;17637;51.984;21.208;2023-07-20T08:12:56;99679.59;;;17.24;70.90
30949;BME280;17637;51.984;21.208;2023-07-20T08:15:28;99683.22;;;17.15;73.58
30949;BME280;17637;51.984;21.208;2023-07-20T08:17:59;99701.28;;;17.18;71.60
30949;BME280;17637;51.984;21.208;2023-07-20T08:20:32;99695.22;;;17.09;71.19
30949;BME280;17637;51.984;21.208;2023-07-20T08:23:03;99710.44;;;17.22;71.86
30949;BME280;17637;51.984;21.208;2023-07-20T08:25:39;99672.63;;;17.00;72.02
30949;BME280;17637;51.984;21.208;2023-07-20T08:28:16;99702.06;;;17.27;71.20
30949;BME280;17637;51.984;21.208;2023-07-20T08:30:48;99685.72;;;17.08;71.13
30949;BME280;17637;51.984;21.208;2023-07-20T08:33:20;99663.09;;;16.99;72.66
30949;BME280;17637;51.984;21.208;2023-07-20T08:35:53;99680.44;;;17.16;72.87
30949;BME280;17637;51.984;21.208;2023-07-20T08:38:28;99700.38;;;17.42;70.96
30949;BME280;17637;51.984;21.208;2023-07-20T08:41:00;99710.41;;;17.30;72.03
30949;BME280;17637;51.984;21.208;2023-07-20T08:43:33;99728.19;;;17.60;70.77
30949;BME280;17637;51.984;21.208;2023-07-20T08:46:05;99731.84;;;17.50;71.37
30949;BME280;17637;51.984;21.208;2023-07-20T08:48:37;99743.19;;;17.43;71.28
30949;BME280;17637;51.984;21.208;2023-07-20T08:51:11;99744.31;;;17.48;71.36
30949;BME280;17637;51.984;21.208;2023-07-20T08:53:45;99749.56;;;17.48;74.09
30949;BME280;17637;51.984;21.208;2023-07-20T08:56:18;99749.25;;;17.43;72.36
30949;BME280;17637;51.984;21.208;2023-07-20T08:58:53;99741.69;;;17.48;72.11
30949;BME280;17637;51.984;21.208;2023-07-20T09:01:26;99717.78;;;17.35;72.02
30949;BME280;17637;51.984;21.208;2023-07-20T09:03:58;99733.81;;;17.48;71.50
30949;BME280;17637;51.984;21.208;2023-07-20T09:06:30;99753.28;;;17.62;72.44
30949;BME280;17637;51.984;21.208;2023-07-20T09:09:02;99723.09;;;17.66;73.02
30949;BME280;17637;51.984;21.208;2023-07-20T09:11:34;99741.91;;;17.78;71.44
30949;BME280;17637;51.984;21.208;2023-07-20T09:14:08;99753.41;;;17.77;70.66
30949;BME280;17637;51.984;21.208;2023-07-20T09:19:21;99744.94;;;17.59;71.16
30949;BME280;17637;51.984;21.208;2023-07-20T09:21:53;99752.41;;;17.78;71.37
30949;BME280;17637;51.984;21.208;2023-07-20T09:24:28;99728.41;;;17.42;71.87
30949;BME280;17637;51.984;21.208;2023-07-20T09:27:01;99765.63;;;18.01;71.28
30949;BME280;17637;51.984;21.208;2023-07-20T09:29:47;99725.06;;;17.96;71.39
30949;BME280;17637;51.984;21.208;2023-07-20T09:32:20;99766.13;;;18.28;71.02
30949;BME280;17637;51.984;21.208;2023-07-20T09:34:55;99713.81;;;17.79;70.04
30949;BME280;17637;51.984;21.208;2023-07-20T09:37:28;99744.78;;;18.23;71.08
30949;BME280;17637;51.984;21.208;2023-07-20T09:40:00;99748.75;;;18.19;72.14
30949;BME280;17637;51.984;21.208;2023-07-20T09:42:35;99744.25;;;18.28;70.45
30949;BME280;17637;51.984;21.208;2023-07-20T09:45:08;99759.91;;;18.21;71.22
30949;BME280;17637;51.984;21.208;2023-07-20T09:47:40;99756.28;;;18.22;71.48
30949;BME280;17637;51.984;21.208;2023-07-20T09:50:13;99765.94;;;18.30;70.83
30949;BME280;17637;51.984;21.208;2023-07-20T09:52:47;99755.44;;;17.98;71.48
30949;BME280;17637;51.984;21.208;2023-07-20T09:55:22;99768.75;;;17.97;71.61
30949;BME280;17637;51.984;21.208;2023-07-20T09:57:56;99784.81;;;18.10;70.32
30949;BME280;17637;51.984;21.208;2023-07-20T10:00:28;99776.53;;;17.82;71.62
30949;BME280;17637;51.984;21.208;2023-07-20T10:03:04;99776.81;;;17.95;72.76
30949;BME280;17637;51.984;21.208;2023-07-20T10:05:39;99778.94;;;17.92;73.24
30949;BME280;17637;51.984;21.208;2023-07-20T10:08:16;99753.34;;;17.85;70.30
30949;BME280;17637;51.984;21.208;2023-07-20T10:10:53;99760.69;;;17.98;69.57
30949;BME280;17637;51.984;21.208;2023-07-20T10:13:26;99783.03;;;18.02;71.59
30949;BME280;17637;51.984;21.208;2023-07-20T10:16:05;99734.66;;;18.12;68.35
30949;BME280;17637;51.984;21.208;2023-07-20T10:21:21;99765.28;;;18.28;66.80
30949;BME280;17637;51.984;21.208;2023-07-20T10:23:57;99757.81;;;18.16;65.78
30949;BME280;17637;51.984;21.208;2023-07-20T10:26:29;99751.69;;;18.24;66.50
30949;BME280;17637;51.984;21.208;2023-07-20T10:29:01;99762.13;;;18.32;64.19
30949;BME280;17637;51.984;21.208;2023-07-20T10:31:36;99748.69;;;18.27;65.14
30949;BME280;17637;51.984;21.208;2023-07-20T10:34:08;99752.78;;;18.53;64.08
30949;BME280;17637;51.984;21.208;2023-07-20T10:36:45;99752.41;;;18.79;63.26
30949;BME280;17637;51.984;21.208;2023-07-20T10:39:28;99761.72;;;19.20;62.97
30949;BME280;17637;51.984;21.208;2023-07-20T10:42:11;99733.50;;;19.14;62.97
30949;BME280;17637;51.984;21.208;2023-07-20T10:44:44;99746.66;;;19.59;64.21
30949;BME280;17637;51.984;21.208;2023-07-20T10:47:16;99738.16;;;19.63;63.28
30949;BME280;17637;51.984;21.208;2023-07-20T10:49:58;99756.41;;;19.95;64.13
30949;BME280;17637;51.984;21.208;2023-07-20T10:52:41;99741.38;;;19.44;61.84
30949;BME280;17637;51.984;21.208;2023-07-20T10:55:17;99757.19;;;19.14;61.73
30949;BME280;17637;51.984;21.208;2023-07-20T10:58:08;99758.91;;;19.07;61.56
30949;BME280;17637;51.984;21.208;2023-07-20T11:00:58;99740.72;;;18.97;61.09
30949;BME280;17637;51.984;21.208;2023-07-20T11:03:38;99761.09;;;19.18;62.14
30949;BME280;17637;51.984;21.208;2023-07-20T11:08:56;99759.00;;;19.28;62.18
30949;BME280;17637;51.984;21.208;2023-07-20T11:11:39;99741.38;;;19.29;62.15
30949;BME280;17637;51.984;21.208;2023-07-20T11:14:21;99736.13;;;19.95;59.32
30949;BME280;17637;51.984;21.208;2023-07-20T11:16:53;99742.31;;;20.24;58.83
30949;BME280;17637;51.984;21.208;2023-07-20T11:19:27;99737.88;;;20.10;58.39
30949;BME280;17637;51.984;21.208;2023-07-20T11:22:04;99746.56;;;20.04;57.22
30949;BME280;17637;51.984;21.208;2023-07-20T11:24:39;99728.31;;;20.74;57.52
30949;BME280;17637;51.984;21.208;2023-07-20T11:27:12;99724.63;;;20.68;56.16
30949;BME280;17637;51.984;21.208;2023-07-20T11:29:45;99721.47;;;20.29;55.60
30949;BME280;17637;51.984;21.208;2023-07-20T11:32:21;99735.97;;;20.90;55.31
30949;BME280;17637;51.984;21.208;2023-07-20T11:34:53;99722.47;;;20.78;55.09
30949;BME280;17637;51.984;21.208;2023-07-20T11:37:25;99715.47;;;20.92;54.69
30949;BME280;17637;51.984;21.208;2023-07-20T11:39:58;99711.34;;;20.83;54.34
30949;BME280;17637;51.984;21.208;2023-07-20T11:42:30;99708.78;;;20.68;55.03
30949;BME280;17637;51.984;21.208;2023-07-20T11:45:05;99712.69;;;20.72;55.14
30949;BME280;17637;51.984;21.208;2023-07-20T11:47:40;99713.97;;;21.11;55.36
30949;BME280;17637;51.984;21.208;2023-07-20T11:50:15;99697.16;;;21.26;53.67
30949;BME280;17637;51.984;21.208;2023-07-20T11:52:47;99679.75;;;20.96;52.84
30949;BME280;17637;51.984;21.208;2023-07-20T11:55:19;99693.03;;;20.53;52.22
30949;BME280;17637;51.984;21.208;2023-07-20T11:58:08;99698.41;;;20.38;54.10
30949;BME280;17637;51.984;21.208;2023-07-20T12:00:43;99718.72;;;20.94;53.49
30949;BME280;17637;51.984;21.208;2023-07-20T12:03:15;99704.56;;;21.44;52.68
30949;BME280;17637;51.984;21.208;2023-07-20T12:05:47;99688.69;;;21.37;54.14
30949;BME280;17637;51.984;21.208;2023-07-20T12:08:32;99699.28;;;22.12;52.74
30949;BME280;17637;51.984;21.208;2023-07-20T12:11:04;99707.16;;;21.92;52.01
30949;BME280;17637;51.984;21.208;2023-07-20T12:13:42;99698.75;;;21.69;50.64
30949;BME280;17637;51.984;21.208;2023-07-20T12:16:15;99715.06;;;21.79;51.29
30949;BME280;17637;51.984;21.208;2023-07-20T12:18:48;99717.66;;;21.66;50.84
30949;BME280;17637;51.984;21.208;2023-07-20T12:21:20;99702.72;;;22.20;51.11
30949;BME280;17637;51.984;21.208;2023-07-20T12:23:52;99687.81;;;21.85;50.69
30949;BME280;17637;51.984;21.208;2023-07-20T12:26:25;99702.47;;;21.94;49.97
30949;BME280;17637;51.984;21.208;2023-07-20T12:28:57;99684.94;;;21.67;52.36
30949;BME280;17637;51.984;21.208;2023-07-20T12:31:30;99680.75;;;21.37;51.37
30949;BME280;17637;51.984;21.208;2023-07-20T12:34:05;99682.56;;;21.37;52.70
30949;BME280;17637;51.984;21.208;2023-07-20T12:36:37;99689.22;;;21.74;53.40
30949;BME280;17637;51.984;21.208;2023-07-20T12:39:09;99681.72;;;21.85;52.90
30949;BME280;17637;51.984;21.208;2023-07-20T12:41:41;99698.19;;;21.87;53.02
30949;BME280;17637;51.984;21.208;2023-07-20T12:44:13;99692.72;;;21.95;54.88
30949;BME280;17637;51.984;21.208;2023-07-20T12:46:44;99692.09;;;22.00;54.20
30949;BME280;17637;51.984;21.208;2023-07-20T12:49:16;99703.91;;;21.84;54.19
30949;BME280;17637;51.984;21.208;2023-07-20T12:51:48;99701.69;;;21.94;53.20
30949;BME280;17637;51.984;21.208;2023-07-20T12:54:20;99709.59;;;21.94;54.10
30949;BME280;17637;51.984;21.208;2023-07-20T12:56:52;99656.28;;;21.77;52.58
30949;BME280;17637;51.984;21.208;2023-07-20T12:59:27;99713.09;;;22.15;53.46
30949;BME280;17637;51.984;21.208;2023-07-20T13:01:58;99677.81;;;21.60;53.52
30949;BME280;17637;51.984;21.208;2023-07-20T13:04:30;99693.50;;;21.75;53.92
30949;BME280;17637;51.984;21.208;2023-07-20T13:07:02;99646.91;;;21.12;53.47
30949;BME280;17637;51.984;21.208;2023-07-20T13:09:54;99676.81;;;21.20;51.40
30949;BME280;17637;51.984;21.208;2023-07-20T13:12:28;99695.41;;;21.46;51.88
30949;BME280;17637;51.984;21.208;2023-07-20T13:15:05;99694.72;;;21.24;51.49
30949;BME280;17637;51.984;21.208;2023-07-20T13:17:39;99692.53;;;21.41;51.96
30949;BME280;17637;51.984;21.208;2023-07-20T13:20:11;99700.44;;;21.35;52.07
30949;BME280;17637;51.984;21.208;2023-07-20T13:22:43;99694.84;;;21.51;52.22
30949;BME280;17637;51.984;21.208;2023-07-20T13:25:15;99675.25;;;21.39;53.09
30949;BME280;17637;51.984;21.208;2023-07-20T13:27:46;99683.69;;;21.56;54.06
30949;BME280;17637;51.984;21.208;2023-07-20T13:30:19;99688.69;;;21.44;55.03
30949;BME280;17637;51.984;21.208;2023-07-20T13:32:53;99650.56;;;21.67;55.42
30949;BME280;17637;51.984;21.208;2023-07-20T13:35:25;99666.25;;;21.82;55.46
30949;BME280;17637;51.984;21.208;2023-07-20T13:37:57;99650.06;;;21.50;54.67
30949;BME280;17637;51.984;21.208;2023-07-20T13:40:29;99680.03;;;21.57;54.21